Huntsville, Tennessee
Current Conditions -  °F | °C
As of 1:53 AM on Sunday 23 Nov 2014 (Local Time) from KOQT Reporting Station
Broken Clouds Broken Clouds  
Wind Chill: 46°   Ceiling: 6000
Heat Index: 46°   Visibility: 10mi
Dew Point: 35°   Wind: 3mph
Humidity: 66%   Direction: 190°S
Pressure: 30.15"   Gusts: NA
Location:  36.41°N, 84.49°W
Report Text: KOQT 230653Z AUTO 19003KT 10SM BKN060 08/02 A3015 RMK AO2 SLP210 T00780017
Loading
Personal Weather Stations






























Interactive Weather Map New forecast layout! Learn more

10-Day Weather Forecast

Advertisements
Track Severe Weather on mobile